Latest Weather Observations for Oakey

IDQ60801

Issued at 6:42 am EST Monday 28 September 2020 (issued every 10 minutes, with the page automatically refreshed every 10 minutes)

About weather observations | Map of weather stations | Latest weather observations for QLD | Other Formats
Station Details ID: 041359 Name: OAKEY AERO Lat: -27.40 Lon: 151.74 Height: 405.69 m
Data from the previous 72 hours. | See also: Recent months at Oakey
Date/Time
EST
Temp
°C
App
Temp
°C
Dew
Point
°C
Rel
Hum
%
Delta-T
°C
Wind Press
QNH
hPa
Press
MSL
hPa
Rain since
9am
mm
Dir  Spd
km/h
Gust
km/h
Spd
kts
Gust
kts
28/06:30am 10.6 8.0 6.0 73 2.2 E 9 13 5 7 1024.4 1023.7 0.0
28/06:00am 8.8 5.7 5.4 79 1.6 ENE 11 15 6 8 1024.2 1023.5 0.0
28/05:30am 7.9 4.2 4.7 80 1.4 ENE 13 15 7 8 1023.8 1023.1 0.0
28/05:00am 7.9 4.1 3.9 76 1.8 ENE 13 15 7 8 1023.4 1022.6 0.0
28/04:30am 8.7 4.2 4.1 73 2.1 ENE 17 19 9 10 1022.8 1022.1 0.0
28/04:00am 8.8 3.9 4.0 72 2.1 ENE 19 20 10 11 1022.6 1021.9 0.0
28/03:30am 9.2 4.6 3.8 69 2.4 ENE 17 20 9 11 1022.5 1021.8 0.0
28/03:00am 9.4 4.9 4.0 69 2.4 NE 17 20 9 11 1022.4 1021.7 0.0
28/02:30am 9.1 5.0 4.3 72 2.2 NE 15 19 8 10 1022.6 1021.9 0.0
28/02:00am 6.8 4.8 2.3 73 1.9 NE 2 7 1 4 1022.8 1022.1 0.0
28/01:30am 7.1 2.9 1.8 69 2.2 NNE 13 13 7 7 1023.2 1022.5 0.0
28/01:00am 6.9 2.3 1.8 70 2.1 N 15 17 8 9 1023.6 1022.9 0.0
28/12:30am 7.6 3.8 1.9 67 2.4 NNW 11 13 6 7 1023.7 1023.0 0.0
28/12:00am 9.0 4.5 2.3 63 2.9 E 15 17 8 9 1023.8 1023.1 0.0
 
Date/Time
EST
Temp
°C
App
Temp
°C
Dew
Point
°C
Rel
Hum
%
Delta-T
°C
Wind Press
QNH
hPa
Press
MSL
hPa
Rain since
9am
mm
Dir  Spd
km/h
Gust
km/h
Spd
kts
Gust
kts
27/11:30pm 8.2 3.3 1.8 64 2.7 E 17 20 9 11 1023.7 1023.0 0.0
27/11:00pm 10.0 5.9 2.4 59 3.3 ENE 13 17 7 9 1024.1 1023.4 0.0
27/10:30pm 10.2 6.6 2.8 60 3.3 E 11 17 6 9 1024.1 1023.4 0.0
27/10:00pm 7.9 4.4 -3.0 46 4.1 E 6 9 3 5 1024.0 1023.3 0.0
27/09:30pm 7.4 3.1 -4.7 42 4.3 E 9 13 5 7 1023.6 1022.9 0.0
27/09:00pm 6.5 2.7 -4.0 47 3.8 NNW 7 9 4 5 1023.0 1022.3 0.0
27/08:30pm 7.2 2.9 -5.1 41 4.3 E 9 13 5 7 1022.5 1021.8 0.0
27/08:00pm 10.8 6.4 -6.1 30 6.1 S 9 13 5 7 1022.3 1021.6 0.0
27/07:30pm 14.5 9.9 -3.8 28 7.2 SSW 11 13 6 7 1021.9 1021.2 0.0
27/07:00pm 14.1 9.1 -4.6 27 7.2 SSW 13 15 7 8 1021.5 1020.8 0.0
27/06:30pm 14.6 9.5 -5.2 25 7.6 SSW 13 15 7 8 1021.0 1020.2 0.0
27/06:00pm 17.0 11.1 -5.5 21 8.8 SSW 17 20 9 11 1020.5 1019.8 0.0
27/05:30pm 19.5 13.2 -5.4 18 10.0 SSW 19 26 10 14 1020.0 1019.3 0.0
27/05:00pm 20.9 14.5 -5.0 17 10.6 SW 20 28 11 15 1019.7 1019.0 0.0
27/04:30pm 21.5 15.2 -3.8 18 10.7 SSW 20 30 11 16 1019.5 1018.8 0.0
27/04:00pm 21.7 14.7 -3.6 18 10.8 SSW 24 37 13 20 1019.3 1018.5 0.0
27/03:30pm 21.6 15.5 -3.7 18 10.8 SW 19 30 10 16 1019.3 1018.5 0.0
27/03:00pm 21.4 14.7 -4.6 17 10.8 SSW 22 33 12 18 1019.3 1018.5 0.0
27/02:30pm 21.2 14.9 -4.0 18 10.6 SSW 20 32 11 17 1019.4 1018.7 0.0
27/02:00pm 21.3 14.7 -3.2 19 10.5 SSW 22 33 12 18 1019.8 1019.1 0.0
27/01:30pm 21.2 13.8 -4.0 18 10.6 SW 26 37 14 20 1020.3 1019.6 0.0
27/01:00pm 20.6 12.7 -4.5 18 10.4 SW 28 43 15 23 1020.8 1020.0 0.0
27/12:30pm 20.7 13.0 -3.0 20 10.1 SSW 28 41 15 22 1021.2 1020.4 0.0
27/12:00pm 20.6 13.3 -3.1 20 10.1 SSW 26 33 14 18 1021.7 1021.0 0.0
27/11:30am 19.8 13.4 -4.5 19 10.0 SW 20 33 11 18 1022.0 1021.3 0.0
27/11:00am 18.6 12.5 -4.1 21 9.3 SW 19 30 10 16 1022.5 1021.8 0.0
27/10:30am 17.7 11.6 -3.7 23 8.8 SSW 19 33 10 18 1022.8 1022.1 0.0
27/10:00am 17.6 11.9 -3.7 23 8.7 S 17 26 9 14 1023.0 1022.3 0.0
27/09:30am 16.5 10.4 -4.1 24 8.3 SSW 19 30 10 16 1023.0 1022.3 0.0
27/09:03am 16.5 10.2 -3.6 25 8.2 SSW 20 28 11 15 1023.0 1022.3 0.0
27/09:00am 16.3 10.0 -4.3 24 8.2 SSW 20 30 11 16 1023.0 1022.3 0.0
27/08:42am 16.0 10.8 -3.0 27 7.8 S 15 20 8 11 1023.0 1022.3 0.0
27/08:30am 15.6 11.5 -3.3 27 7.7 ESE 9 13 5 7 1022.9 1022.2 0.0
27/08:00am 13.1 8.6 -3.6 31 6.5 SE 11 15 6 8 1022.7 1022.0 0.0
27/07:30am 10.5 7.6 -4.3 35 5.5 NE 2 6 1 3 1022.7 1022.0 0.0
27/07:00am 6.2 2.6 -4.0 48 3.6 NNE 6 7 3 4 1022.3 1021.6 0.0
27/06:30am 2.9 -0.7 -3.9 61 2.3 ENE 6 9 3 5 1021.9 1021.2 0.0
27/06:00am -1.4 -5.8 -5.8 72 1.3 E 9 9 5 5 1021.3 1020.5 0.0
27/05:30am -1.8 -6.2 -6.0 73 1.2 E 9 11 5 6 1021.1 1020.3 0.0
27/05:00am -1.7 -5.6 -6.1 72 1.3 NE 6 7 3 4 1020.8 1020.0 0.0
27/04:30am -1.2 -5.6 -5.8 71 1.4 NNE 9 11 5 6 1020.4 1019.7 0.0
27/04:00am -0.4 -4.3 -4.6 73 1.4 NNE 7 9 4 5 1020.2 1019.5 0.0
27/03:30am -0.4 -4.4 -5.8 67 1.7 NNE 7 7 4 4 1019.9 1019.2 0.0
27/03:00am 0.4 -3.9 -5.0 67 1.8 N 9 11 5 6 1020.1 1019.4 0.0
27/02:30am 0.8 -3.0 -5.2 64 2.0 NE 6 7 3 4 1020.1 1019.4 0.0
27/02:00am 0.5 -3.4 -5.1 66 1.9 E 7 9 4 5 1020.2 1019.5 0.0
27/01:30am 1.2 -3.1 -4.8 64 2.1 NNE 9 11 5 6 1020.5 1019.8 0.0
27/01:00am 1.8 -2.1 -5.1 60 2.4 NNE 7 9 4 5 1020.6 1019.9 0.0
27/12:30am 2.3 -1.5 -4.0 63 2.1 NNE 7 9 4 5 1020.9 1020.1 0.0
27/12:00am 2.5 -0.4 -4.2 61 2.3 NE 2 7 1 4 1020.9 1020.1 0.0
 
Date/Time
EST
Temp
°C
App
Temp
°C
Dew
Point
°C
Rel
Hum
%
Delta-T
°C
Wind Press
QNH
hPa
Press
MSL
hPa
Rain since
9am
mm
Dir  Spd
km/h
Gust
km/h
Spd
kts
Gust
kts
26/11:30pm 4.0 1.6 -3.0 60 2.5 CALM 0 0 0 0 1020.8 1020.0 0.0
26/11:00pm 4.4 1.8 -5.4 49 3.3 CALM 0 6 0 3 1020.8 1020.0 0.0
26/10:30pm 6.3 3.8 -3.9 48 3.7 CALM 0 0 0 0 1020.8 1020.0 0.0
26/10:00pm 6.3 3.8 -3.6 49 3.6 CALM 0 0 0 0 1020.9 1020.1 0.0
26/09:30pm 7.9 3.3 -7.4 33 5.2 S 9 13 5 7 1020.9 1020.1 0.0
26/09:00pm 11.7 6.5 -5.7 29 6.4 S 13 17 7 9 1020.5 1019.8 0.0
26/08:30pm 12.2 6.7 -5.7 28 6.6 S 15 19 8 10 1020.3 1019.6 0.0
26/08:00pm 13.0 6.5 -5.5 27 6.9 SSW 20 22 11 12 1019.9 1019.2 0.0
26/07:30pm 13.1 7.2 -5.4 27 7.0 SSW 17 20 9 11 1019.5 1018.8 0.0
26/07:00pm 14.3 7.9 -4.9 26 7.4 SSW 20 26 11 14 1018.9 1018.1 0.0
26/06:30pm 14.5 8.1 -5.3 25 7.6 SSW 20 26 11 14 1018.4 1017.6 0.0
26/06:00pm 15.6 8.8 -5.4 23 8.1 SSW 22 26 12 14 1017.7 1017.0 0.0
26/05:30pm 17.0 8.6 -5.5 21 8.8 SW 30 39 16 21 1017.1 1016.3 0.0
26/05:00pm 18.1 9.7 -5.9 19 9.4 SW 30 43 16 23 1016.6 1015.8 0.0
26/04:30pm 18.8 9.4 -6.0 18 9.8 SW 35 41 19 22 1016.2 1015.4 0.0
26/04:00pm 19.7 10.8 -5.3 18 10.1 SSW 33 43 18 23 1016.1 1015.3 0.0
26/03:30pm 19.7 10.0 -6.0 17 10.3 SW 37 48 20 26 1015.8 1015.0 0.0
26/03:15pm 19.8 11.1 -5.2 18 10.2 SW 32 50 17 27 1015.7 1014.9 0.0
26/03:00pm 19.6 10.7 -5.3 18 10.1 SW 33 46 18 25 1015.6 1014.8 0.0
26/02:40pm 20.3 11.4 -5.5 17 10.5 SW 33 52 18 28 1015.6 1014.8 0.0
26/02:30pm 19.9 10.2 -5.8 17 10.3 SW 37 52 20 28 1015.8 1015.0 0.0
26/02:18pm 20.3 11.6 -5.5 17 10.5 SW 32 52 17 28 1015.9 1015.1 0.0
26/02:12pm 19.9 10.3 -5.1 18 10.2 WSW 37 48 20 26 1015.9 1015.1 0.0
26/02:00pm 19.8 10.1 -5.9 17 10.3 SW 37 50 20 27 1016.1 1015.3 0.0
26/01:48pm 19.4 10.2 -4.8 19 9.9 SW 35 54 19 29 1016.1 1015.3 0.0
26/01:30pm 19.4 9.4 -4.8 19 9.9 SW 39 52 21 28 1016.3 1015.5 0.0
26/01:00pm 19.4 9.7 -5.5 18 10.0 WSW 37 48 20 26 1016.5 1015.7 0.0
26/12:30pm 19.0 8.9 -5.8 18 9.9 SW 39 50 21 27 1016.7 1015.9 0.0
26/12:00pm 18.5 9.3 -4.2 21 9.3 SW 35 57 19 31 1016.9 1016.1 0.0
26/11:53am 18.6 8.9 -5.4 19 9.6 SW 37 57 20 31 1017.0 1016.2 0.0
26/11:30am 17.5 7.5 -4.4 22 8.8 SW 39 54 21 29 1017.2 1016.5 0.0
26/11:00am 17.6 7.3 -4.3 22 8.8 SW 41 56 22 30 1017.5 1016.8 0.0
26/10:30am 17.1 7.9 -1.1 29 7.8 SW 37 48 20 26 1017.6 1016.9 0.0
26/10:00am 16.0 6.0 -2.0 29 7.5 WSW 41 56 22 30 1017.7 1017.0 0.0
26/09:50am 16.1 6.9 -1.5 30 7.4 SW 37 56 20 30 1017.8 1017.1 0.0
26/09:30am 14.6 5.3 -1.9 32 6.8 SW 37 46 20 25 1017.9 1017.2 0.0
26/09:00am 14.1 5.6 -1.9 33 6.6 SW 33 44 18 24 1018.2 1017.4 0.0
26/08:30am 13.2 4.6 -2.3 34 6.3 SW 33 46 18 25 1018.0 1017.3 0.0
26/08:00am 12.1 4.6 -1.1 40 5.4 SW 28 35 15 19 1017.8 1017.1 0.0
26/07:30am 11.7 4.7 -0.8 42 5.1 WSW 26 33 14 18 1017.5 1016.8 0.0
26/07:00am 10.3 4.4 -0.5 47 4.4 WSW 20 28 11 15 1017.0 1016.2 0.0
26/06:30am 8.9 3.7 -0.1 53 3.7 W 17 20 9 11 1016.6 1015.8 0.0
26/06:00am 7.4 2.2 -0.1 59 3.0 W 17 20 9 11 1016.3 1015.5 0.0
26/05:30am 6.8 1.6 -0.2 61 2.8 W 17 20 9 11 1015.8 1015.0 0.0
26/05:00am 6.2 1.6 -1.0 60 2.8 W 13 17 7 9 1015.7 1014.9 0.0
26/04:30am 7.8 2.1 -0.7 55 3.4 WSW 19 22 10 12 1015.3 1014.6 0.0
26/04:00am 8.2 2.5 -0.5 54 3.5 WSW 19 22 10 12 1015.0 1014.2 0.0
26/03:30am 8.2 3.4 0.0 56 3.3 WSW 15 17 8 9 1014.7 1013.9 0.0
26/03:00am 9.3 3.5 0.2 53 3.7 WSW 20 24 11 13 1014.6 1013.8 0.0
26/02:30am 10.5 4.7 -0.3 47 4.4 SW 20 26 11 14 1014.5 1013.7 0.0
26/02:00am 11.2 5.4 0.0 46 4.7 SW 20 28 11 15 1014.5 1013.7 0.0
26/01:30am 12.0 5.6 1.1 47 4.7 SSW 24 37 13 20 1014.6 1013.8 0.0
26/01:00am 12.6 7.4 3.3 53 4.2 SSW 20 30 11 16 1014.4 1013.6 0.0
26/12:43am 13.5 4.6 3.3 50 4.7 SSW 39 57 21 31 1013.9 1013.1 0.0
26/12:30am 14.5 5.3 3.3 47 5.2 SSW 41 61 22 33 1013.3 1012.5 0.0
26/12:18am 15.6 8.2 -1.0 32 7.1 SW 28 48 15 26 1012.8 1012.0 0.0
26/12:11am 16.4 11.0 -1.7 29 7.6 WNW 17 43 9 23 1012.5 1011.7 0.0
26/12:00am 11.0 5.7 -3.5 36 5.6 NW 15 17 8 9 1011.5 1010.7 0.0
 
Date/Time
EST
Temp
°C
App
Temp
°C
Dew
Point
°C
Rel
Hum
%
Delta-T
°C
Wind Press
QNH
hPa
Press
MSL
hPa
Rain since
9am
mm
Dir  Spd
km/h
Gust
km/h
Spd
kts
Gust
kts
25/11:30pm 12.0 9.7 -2.6 36 5.8 CALM 0 0 0 0 1011.5 1010.7 0.0
25/11:00pm 13.6 10.0 -1.9 34 6.4 NNW 7 11 4 6 1011.5 1010.7 0.0
25/10:30pm 13.5 9.5 -2.4 33 6.4 W 9 15 5 8 1011.3 1010.5 0.0
25/10:00pm 16.3 10.9 -1.7 29 7.6 W 17 19 9 10 1011.2 1010.4 0.0
25/09:30pm 15.1 9.9 -0.2 35 6.6 NW 17 20 9 11 1011.1 1010.3 0.0
25/09:00pm 13.8 9.1 0.8 41 5.7 NW 15 19 8 10 1010.9 1010.1 0.0
25/08:30pm 15.6 11.1 2.4 41 6.0 NW 15 17 8 9 1010.6 1009.7 0.0
25/08:00pm 15.9 11.6 3.4 43 5.9 NW 15 15 8 8 1010.1 1009.3 0.0
25/07:52pm 16.3 12.0 3.4 42 6.1 NW 15 17 8 9 1010.0 1009.2 0.0
25/07:36pm 17.4 13.0 2.6 37 6.9 NW 15 17 8 9 1009.8 1009.0 0.0
25/07:30pm 17.5 13.0 2.3 36 7.0 NW 15 17 8 9 1009.6 1008.8 0.0
25/07:00pm 21.4 16.8 3.6 31 8.7 WNW 17 20 9 11 1009.3 1008.5 0.0
25/06:30pm 22.6 18.3 5.1 32 8.9 W 17 20 9 11 1008.7 1007.9 0.0
25/06:00pm 25.6 19.9 6.8 30 10.0 W 26 35 14 19 1008.4 1007.5 0.0
25/05:30pm 26.9 20.1 6.9 28 10.8 WNW 32 43 17 23 1008.1 1007.2 0.0
25/05:00pm 27.8 20.4 6.6 26 11.4 WNW 35 46 19 25 1008.1 1007.2 0.0
25/04:30pm 28.2 20.4 5.1 23 12.1 WNW 35 44 19 24 1007.8 1006.9 0.0
25/04:00pm 28.7 19.6 4.2 21 12.7 WNW 41 56 22 30 1007.8 1006.9 0.0
25/03:30pm 29.1 20.8 5.9 23 12.4 WNW 39 52 21 28 1008.0 1007.1 0.0
25/03:00pm 29.0 21.7 7.0 25 12.0 WNW 35 54 19 29 1008.3 1007.4 0.0
25/02:43pm 28.2 20.2 5.7 24 11.9 WNW 37 56 20 30 1008.5 1007.6 0.0
25/02:30pm 27.9 19.5 5.5 24 11.8 WNW 39 52 21 28 1008.7 1007.9 0.0
25/02:00pm 29.7 21.3 5.7 22 12.9 NW 39 48 21 26 1009.0 1008.2 0.0
25/01:30pm 29.4 21.6 6.7 24 12.3 NW 37 56 20 30 1009.4 1008.6 0.0
25/01:00pm 29.0 21.8 7.6 26 11.8 WNW 35 65 19 35 1010.1 1009.3 0.0
25/12:31pm 28.2 21.4 5.1 23 12.1 WNW 30 48 16 26 1011.0 1010.2 0.0
25/12:30pm 28.5 21.4 5.4 23 12.2 WNW 32 48 17 26 1011.0 1010.2 0.0
25/12:00pm 27.6 19.5 5.2 24 11.8 NW 37 54 20 29 1011.8 1011.0 0.0
25/11:44am 27.7 20.9 7.5 28 11.0 NW 33 56 18 30 1012.1 1011.3 0.0
25/11:30am 26.6 19.7 7.1 29 10.5 WNW 33 48 18 26 1012.3 1011.5 0.0
25/11:15am 27.3 20.8 6.7 27 11.1 NW 30 48 16 26 1012.8 1012.0 0.0
25/11:00am 27.5 20.5 6.8 27 11.2 NW 33 46 18 25 1013.0 1012.2 0.0
25/10:58am 26.9 19.9 6.9 28 10.8 WNW 33 46 18 25 1013.1 1012.3 0.0
25/10:52am 27.0 20.2 6.9 28 10.8 NW 32 46 17 25 1013.1 1012.3 0.0
25/10:30am 24.6 20.7 8.5 36 8.8 NW 19 28 10 15 1013.7 1012.9 0.0
25/10:00am 24.9 20.4 8.4 35 9.0 NNW 22 30 12 16 1014.2 1013.4 0.0
25/09:44am 24.2 21.0 9.8 40 8.0 NNW 17 24 9 13 1014.4 1013.6 0.0
25/09:30am 23.7 21.1 9.3 40 7.9 NW 13 30 7 16 1014.6 1013.8 0.0
25/09:15am 23.1 20.2 9.8 43 7.4 N 15 24 8 13 1014.7 1013.9 0.0
25/09:02am 23.0 20.4 9.4 42 7.5 NNW 13 20 7 11 1014.7 1013.9 0.0
25/09:00am 22.5 19.8 9.0 42 7.4 NNW 13 20 7 11 1014.8 1014.0 0.0
25/08:58am 22.4 19.6 8.5 41 7.5 N 13 20 7 11 1014.8 1014.0 0.0
25/08:30am 20.9 19.0 8.9 46 6.5 NW 9 17 5 9 1015.3 1014.6 0.0
25/08:26am 20.9 19.6 9.2 47 6.3 N 6 15 3 8 1015.3 1014.6 0.0
25/08:00am 18.9 17.6 9.1 53 5.2 N 6 9 3 5 1015.3 1014.6 0.0
25/07:30am 16.3 13.4 6.7 53 4.8 ENE 11 15 6 8 1015.3 1014.6 0.0
25/07:00am 14.0 10.0 5.1 55 4.3 ENE 15 17 8 9 1015.2 1014.5 0.0

Other formats

Comma delimited format used in spreadsheet applications
http://www.bom.gov.au/fwo/IDQ60801/IDQ60801.94552.axf

JavaScript Object Notation format (JSON) in row-major order
http://www.bom.gov.au/fwo/IDQ60801/IDQ60801.94552.json

Data quality

Most of these data are generated automatically and are frequently updated. Quality checks on data are not normally performed. It is possible for incorrect values to appear. Refer to information at About Latest Weather Observations and please check the disclaimer before using these data.